메인 페이지
METAR-TAF:

METAR-TAF

공항 :

털사, 오클라호마, 미국

위도: 36-11-51N, 경도: 095-53-11W, 고도: 206m

현재 날씨관측

예보는 21분 전, 18:53시(UTC)에 발표되었습니다.
14kt, 순간 최대 풍속 22kt
온도 11°C
습도 94%
기압 1008 hPa
시정: 2.0km
고도 500ft 상공 구름 많음
고도 1600ft 상공 흐림
비, 박무

METAR: KTUL 131853Z 36014G22KT 1 1/4SM RA BR BKN005 OVC016 11/10 A2978 RMK AO2 SFC VIS 2 SLP082 P0036 T01060100

시각: 13:14 (19:14 UTC)

예보

예보는 1 시간 54분 전, 17:20시(UTC)에 발표되었습니다.
예보 대상 시간: 13일 18시부터 14일 18시까지 (UTC)
북동7kt
시정: 8.0km
고도 600ft 상공 구름 많음
고도 3500ft 상공 흐림
약한소나기, 박무
일시적
13일 18시부터 13일 20시까지 (UTC)
시정: 3.2km
고도 600ft 상공 흐림, 적란운.
뇌우, 비, 박무
13일 2000시부터 (UTC)
18kt, 순간 최대 풍속 30kt
시정: 4.8km
고도 600ft 상공 흐림
소나기, 박무
14일 0100시부터 (UTC)
22kt, 순간 최대 풍속 32kt
시정: 6.4km
고도 800ft 상공 구름 보통
고도 1200ft 상공 흐림
약한소나기, 박무
14일 0800시부터 (UTC)
22kt, 순간 최대 풍속 32kt
시정: 10km
고도 1500ft 상공 흐림
시계 내 소나기
14일 1200시부터 (UTC)
18kt, 순간 최대 풍속 28kt
시정: 10km
고도 1500ft 상공 흐림

TAF: KTUL 131720Z 1318/1418 04007KT 5SM -SHRA BR BKN006 OVC035 TEMPO 1318/1320 2SM TSRA BR OVC006CB FM132000 36018G30KT 3SM SHRA BR OVC006 FM140100 35022G32KT 4SM -SHRA BR SCT008 OVC012 FM140800 35022G32KT P6SM VCSH OVC015 FM141200 35018G28KT P6SM OVC015

4,000개 이상의 공항 관측 자료 및 예보 (METAR 및 TAF 보고).

지도상에서 검색 가능한 기상관측소가 노란 점과 빨간 점으로 표시되어 있습니다.

기상관측소 명을 보려면 표시 위로 마우스를 이동하세요.

날씨 관측과 예보를 보려면 클릭하세요.

지도 변경 : 확대하려면 엑스 표시가 있는 녹색 버튼, 축소하려면 빼기 표시가 있는 녹색 버튼, 다음 페이지의 지도를 보려면 녹색 화살표를 클릭하세요.


METAR-TAF: